createdAt,value
2022-11-05T00:01:44.281Z,4.80
2022-11-05T00:04:32.198Z,3.55
2022-11-05T00:07:24.606Z,3.15
2022-11-05T00:10:02.330Z,3.15
2022-11-05T00:12:50.591Z,3.30
2022-11-05T00:15:38.638Z,3.40
2022-11-05T00:18:08.502Z,2.70
2022-11-05T00:20:39.420Z,3.45
2022-11-05T00:23:28.486Z,3.42
2022-11-05T00:26:02.097Z,3.30
2022-11-05T00:28:32.736Z,3.20
2022-11-05T00:31:15.198Z,3.08
2022-11-05T02:06:03.161Z,2.50
2022-11-05T02:08:33.371Z,2.67
2022-11-05T02:11:03.338Z,2.38
2022-11-05T02:13:34.256Z,2.63
2022-11-05T02:16:07.380Z,2.47
2022-11-05T02:18:40.576Z,2.78
2022-11-05T02:21:18.518Z,2.70
2022-11-05T02:23:48.801Z,2.22
2022-11-05T02:26:25.032Z,2.90
2022-11-05T02:29:13.424Z,2.45
2022-11-05T02:31:48.703Z,2.13
2022-11-05T02:34:51.232Z,1.70
2022-11-05T02:37:47.085Z,2.00
2022-11-05T02:40:16.903Z,2.30
2022-11-05T02:43:22.090Z,2.28
2022-11-05T02:45:55.390Z,2.45
2022-11-05T02:48:37.544Z,2.40
2022-11-05T02:51:11.396Z,2.30
2022-11-05T02:54:01.215Z,2.40
2022-11-05T02:56:35.539Z,2.20
2022-11-05T02:59:05.418Z,2.10
2022-11-05T03:01:35.964Z,2.33
2022-11-05T03:04:09.307Z,2.10
2022-11-05T03:06:45.270Z,1.88
2022-11-05T03:12:10.809Z,1.73
2022-11-05T03:15:05.239Z,1.70
2022-11-05T03:17:38.186Z,2.22
2022-11-05T03:20:08.137Z,2.10
2022-11-05T03:22:41.376Z,2.17
2022-11-05T03:25:15.127Z,2.20
2022-11-05T03:27:47.531Z,1.98
2022-11-05T03:30:19.135Z,1.55
2022-11-05T03:32:51.855Z,2.03
2022-11-05T03:35:25.596Z,2.08
2022-11-05T03:37:58.195Z,1.98
2022-11-05T03:40:29.176Z,1.70
2022-11-05T03:43:01.001Z,1.88
2022-11-05T03:45:40.778Z,2.03
2022-11-05T03:51:00.528Z,2.10
2022-11-05T03:53:35.444Z,1.80
2022-11-05T03:56:25.305Z,3.05
2022-11-05T03:58:58.915Z,2.10
2022-11-05T04:01:30.582Z,1.80
2022-11-05T04:04:01.729Z,1.60
2022-11-05T04:06:58.849Z,1.75
2022-11-05T04:09:47.947Z,2.17
2022-11-05T04:12:37.084Z,2.03
2022-11-05T04:15:08.083Z,2.00
2022-11-05T04:17:37.904Z,1.90
2022-11-05T04:20:26.872Z,1.73
2022-11-05T04:23:22.675Z,1.60
2022-11-05T04:25:52.921Z,1.63
2022-11-05T04:28:42.620Z,1.77
2022-11-05T04:31:12.449Z,2.00
2022-11-05T04:33:42.666Z,1.90
2022-11-05T04:36:13.044Z,1.60
2022-11-05T04:38:42.887Z,1.75
2022-11-05T04:41:17.420Z,1.50
2022-11-05T04:43:47.759Z,1.95
2022-11-05T04:46:18.084Z,2.05
2022-11-05T04:48:47.906Z,1.50
2022-11-05T04:51:18.180Z,1.45
2022-11-05T04:53:48.403Z,1.40
2022-11-05T04:56:23.672Z,1.50
2022-11-05T04:58:53.990Z,1.60
2022-11-05T05:01:25.002Z,1.50
2022-11-05T05:03:56.691Z,1.35
2022-11-05T05:06:27.939Z,1.35
2022-11-05T05:08:58.198Z,1.55
2022-11-05T05:11:28.057Z,1.90
2022-11-05T05:13:57.904Z,1.88
2022-11-05T05:16:30.131Z,1.80
2022-11-05T05:32:34.038Z,1.85
2022-11-05T05:35:03.895Z,1.65
2022-11-05T05:37:33.895Z,2.40
2022-11-05T05:40:04.144Z,2.13
2022-11-05T05:42:37.577Z,1.60
2022-11-05T05:45:11.812Z,1.80
2022-11-05T05:47:42.155Z,1.50
2022-11-05T05:50:12.976Z,1.35
2022-11-05T05:52:42.933Z,1.75
2022-11-05T05:55:14.233Z,1.20
2022-11-05T05:57:44.104Z,1.52
2022-11-05T06:00:14.661Z,1.80
2022-11-05T07:39:48.639Z,1.83
2022-11-05T07:42:19.419Z,2.05
2022-11-05T07:44:49.715Z,1.90
2022-11-05T07:47:19.789Z,1.50
2022-11-05T07:49:50.217Z,1.98
2022-11-05T07:52:20.493Z,2.00
2022-11-05T07:54:50.724Z,2.10
2022-11-05T07:57:21.111Z,2.08
2022-11-05T07:59:51.418Z,2.42
2022-11-05T08:02:21.461Z,2.17
2022-11-05T08:04:51.557Z,2.10
2022-11-05T08:07:21.453Z,2.03
2022-11-05T08:09:51.296Z,2.08
2022-11-05T08:12:21.257Z,1.83
2022-11-05T08:14:51.139Z,2.00
2022-11-05T08:17:21.513Z,2.10
2022-11-05T08:19:51.338Z,2.00
2022-11-05T08:22:21.219Z,1.90
2022-11-05T08:24:51.110Z,1.90
2022-11-05T08:27:20.960Z,2.10
2022-11-05T08:29:50.841Z,1.83
2022-11-05T08:32:21.066Z,2.45
2022-11-05T08:34:50.954Z,2.15
2022-11-05T08:37:21.259Z,2.10
2022-11-05T08:39:51.271Z,2.17
2022-11-05T08:42:21.229Z,1.80
2022-11-05T08:44:51.083Z,2.30
2022-11-05T08:47:21.339Z,2.03
2022-11-05T08:49:52.281Z,2.20
2022-11-05T08:52:23.321Z,2.30
2022-11-05T08:54:53.184Z,2.40
2022-11-05T08:57:23.007Z,2.30
2022-11-05T08:59:52.853Z,1.90
2022-11-05T09:02:22.848Z,2.42
2022-11-05T09:04:52.853Z,2.47
2022-11-05T09:07:24.459Z,2.60
2022-11-05T09:09:55.507Z,2.65
2022-11-05T09:12:25.448Z,2.45
2022-11-05T09:14:55.297Z,2.30
2022-11-05T09:17:25.121Z,2.70
2022-11-05T09:19:54.983Z,2.83
2022-11-05T09:22:26.059Z,2.80
2022-11-05T09:24:56.881Z,3.72
2022-11-05T09:27:26.892Z,3.40
2022-11-05T09:29:56.746Z,3.10
2022-11-05T09:32:26.594Z,3.42
2022-11-05T09:34:56.441Z,3.05
2022-11-05T09:37:26.280Z,3.38
2022-11-05T09:39:56.545Z,3.08
2022-11-05T09:42:29.913Z,2.58
2022-11-05T09:45:07.966Z,2.55
2022-11-05T09:47:47.066Z,2.95
2022-11-05T09:50:39.719Z,2.63
2022-11-05T09:53:09.827Z,2.70
2022-11-05T09:55:41.797Z,3.33
2022-11-05T09:58:29.471Z,3.63
2022-11-05T10:01:00.366Z,3.88
2022-11-05T10:03:32.309Z,3.42
2022-11-05T10:06:10.676Z,3.05
2022-11-05T10:08:45.693Z,3.80
2022-11-05T10:11:36.866Z,4.90
2022-11-05T10:14:15.179Z,5.15
2022-11-05T10:16:46.788Z,5.72
2022-11-05T10:19:25.574Z,5.90
2022-11-05T10:22:11.961Z,5.90
2022-11-05T10:24:44.653Z,6.13
2022-11-05T10:27:34.598Z,5.28
2022-11-05T10:30:04.492Z,4.53
2022-11-05T10:32:36.168Z,3.95
2022-11-05T10:35:07.457Z,3.75
2022-11-05T10:37:40.808Z,3.42
2022-11-05T10:40:19.127Z,3.33
2022-11-05T10:43:09.301Z,3.00
2022-11-05T10:45:39.455Z,3.00
2022-11-05T10:48:12.619Z,3.28
2022-11-05T10:50:42.922Z,2.92
2022-11-05T10:53:31.583Z,3.17
2022-11-05T10:56:02.576Z,3.50
2022-11-05T10:58:34.931Z,2.92
2022-11-05T11:01:07.190Z,2.70
2022-11-05T11:03:37.223Z,2.60
2022-11-05T11:06:09.302Z,2.70
2022-11-05T11:08:39.447Z,2.75
2022-11-05T11:11:10.713Z,2.90
2022-11-05T11:13:53.840Z,2.47
2022-11-05T11:16:24.811Z,2.88
2022-11-05T11:19:00.047Z,2.90
2022-11-05T11:21:30.654Z,2.50
2022-11-05T11:24:05.210Z,2.60
2022-11-05T11:26:45.257Z,2.83
2022-11-05T11:29:15.613Z,2.22
2022-11-05T11:31:45.880Z,2.33
2022-11-05T11:34:16.228Z,2.60
2022-11-05T11:36:51.869Z,2.95
2022-11-05T11:39:24.952Z,2.45
2022-11-05T11:41:56.173Z,2.67
2022-11-05T11:44:28.761Z,2.67
2022-11-05T11:47:03.278Z,2.92
2022-11-05T11:49:41.337Z,2.97
2022-11-05T11:52:16.326Z,2.40
2022-11-05T11:54:47.358Z,2.33
2022-11-05T11:57:31.039Z,2.60
2022-11-05T12:00:08.987Z,2.60
2022-11-05T12:02:39.247Z,2.28
2022-11-05T12:05:32.345Z,2.53
2022-11-05T12:08:16.816Z,2.60
2022-11-05T12:11:07.677Z,3.28
2022-11-05T12:13:37.538Z,2.20
2022-11-05T12:16:20.290Z,2.40
2022-11-05T12:18:56.918Z,2.80
2022-11-05T12:21:50.824Z,2.22
2022-11-05T12:24:25.652Z,2.50
2022-11-05T12:27:14.084Z,2.28
2022-11-05T12:29:49.700Z,2.25
2022-11-05T12:32:25.675Z,2.22
2022-11-05T12:37:30.790Z,3.13
2022-11-05T12:40:00.715Z,2.35
2022-11-05T12:42:59.027Z,2.40
2022-11-05T12:45:44.148Z,1.98
2022-11-05T12:48:14.533Z,2.25
2022-11-05T12:50:48.567Z,2.45
2022-11-05T12:53:21.146Z,2.10
2022-11-05T12:55:51.497Z,1.73
2022-11-05T12:58:24.720Z,2.05
2022-11-05T13:00:57.659Z,2.47
2022-11-05T13:03:30.762Z,2.20
2022-11-05T13:06:07.465Z,2.40
2022-11-05T13:09:04.257Z,1.80
2022-11-05T13:11:43.184Z,2.35
2022-11-05T13:14:31.703Z,2.17
2022-11-05T13:17:14.842Z,2.10
2022-11-05T13:20:03.590Z,2.20
2022-11-05T13:22:42.448Z,2.05
2022-11-05T13:25:15.981Z,2.40
2022-11-05T13:27:47.112Z,2.50
2022-11-05T13:30:24.624Z,1.90
2022-11-05T13:33:23.591Z,2.13
2022-11-05T13:36:18.042Z,2.53
2022-11-05T13:39:05.585Z,2.13
2022-11-05T13:41:53.615Z,2.20
2022-11-05T13:44:31.394Z,1.90
2022-11-05T13:47:20.989Z,2.60
2022-11-05T13:50:08.944Z,2.35
2022-11-05T13:52:57.631Z,2.08
2022-11-05T13:55:37.195Z,2.15
2022-11-05T13:58:19.675Z,1.83
2022-11-05T14:01:09.997Z,2.22
2022-11-05T14:03:40.554Z,2.10
2022-11-05T14:06:13.083Z,2.03
2022-11-05T14:08:49.173Z,2.47
2022-11-05T14:13:49.344Z,1.95
2022-11-05T14:16:23.369Z,2.50
2022-11-05T14:19:11.479Z,2.20
2022-11-05T14:21:57.366Z,1.83
2022-11-05T14:24:27.258Z,2.22
2022-11-05T14:27:03.337Z,2.63
2022-11-05T14:32:09.903Z,2.10
2022-11-05T14:34:44.776Z,1.80
2022-11-05T14:37:14.957Z,1.63
2022-11-05T14:39:45.792Z,1.83
2022-11-05T14:42:34.481Z,1.85
2022-11-05T14:45:04.356Z,2.13
2022-11-05T14:47:39.463Z,1.60
2022-11-05T14:50:16.048Z,1.80
2022-11-05T14:52:53.979Z,2.10
2022-11-05T14:55:37.159Z,2.00
2022-11-05T14:58:26.285Z,1.95
2022-11-05T15:00:57.746Z,1.83
2022-11-05T15:03:32.761Z,1.52
2022-11-05T15:06:28.997Z,2.03
2022-11-05T15:09:01.891Z,1.57
2022-11-05T15:11:34.921Z,1.88
2022-11-05T15:14:04.799Z,1.52
2022-11-05T15:16:38.472Z,1.90
2022-11-05T15:19:08.790Z,1.60
2022-11-05T15:21:39.463Z,1.50
2022-11-05T15:24:09.827Z,2.42
2022-11-05T15:26:44.410Z,1.60
2022-11-05T15:29:32.768Z,1.70
2022-11-05T15:32:03.889Z,1.73
2022-11-05T15:34:35.618Z,1.75
2022-11-05T15:37:15.076Z,1.63
2022-11-05T15:39:46.819Z,2.10
2022-11-05T15:42:21.025Z,2.08
2022-11-05T15:44:51.777Z,2.35
2022-11-05T15:47:21.693Z,1.92
2022-11-05T15:49:56.413Z,1.58
2022-11-05T15:52:28.657Z,1.92
2022-11-05T15:55:17.213Z,1.52
2022-11-05T15:57:50.696Z,2.65
2022-11-05T16:00:22.955Z,1.80
2022-11-05T16:02:58.581Z,1.65
2022-11-05T16:05:29.854Z,1.70
2022-11-05T16:08:03.488Z,1.50
2022-11-05T16:10:42.238Z,1.75
2022-11-05T16:13:44.604Z,1.50
2022-11-05T16:16:17.878Z,1.60
2022-11-05T16:18:48.111Z,2.20
2022-11-05T16:21:24.235Z,1.88
2022-11-05T16:29:36.264Z,2.00
2022-11-05T16:32:08.436Z,2.20
2022-11-05T16:34:42.943Z,1.90
2022-11-05T16:37:18.168Z,2.10
2022-11-05T16:39:48.085Z,2.13
2022-11-05T16:42:37.705Z,2.17
2022-11-05T16:45:07.879Z,2.53
2022-11-05T16:47:38.742Z,2.30
2022-11-05T16:50:17.621Z,3.28
2022-11-05T16:52:48.099Z,2.60
2022-11-05T16:55:18.791Z,2.00
2022-11-05T16:57:50.758Z,2.25
2022-11-05T17:00:21.648Z,2.35
2022-11-05T17:02:51.916Z,2.40
2022-11-05T17:05:32.427Z,2.85
2022-11-05T17:08:03.191Z,2.13
2022-11-05T17:10:33.032Z,2.15
2022-11-05T17:13:03.438Z,2.00
2022-11-05T17:15:37.098Z,1.95
2022-11-05T17:18:08.231Z,2.08
2022-11-05T17:20:45.623Z,2.03
2022-11-05T17:23:18.064Z,1.90
2022-11-05T17:25:49.619Z,2.30
2022-11-05T17:28:19.916Z,1.92
2022-11-05T17:30:54.530Z,2.35
2022-11-05T17:33:25.050Z,2.08
2022-11-05T17:35:56.348Z,2.10
2022-11-05T17:38:27.009Z,2.88
2022-11-05T17:40:56.928Z,2.00
2022-11-05T17:43:26.760Z,2.22
2022-11-05T17:46:00.120Z,2.75
2022-11-05T17:48:34.506Z,2.10
2022-11-05T17:59:51.327Z,2.25
2022-11-05T18:02:21.288Z,2.28
2022-11-05T18:04:51.258Z,2.38
2022-11-05T18:07:21.097Z,2.10
2022-11-05T18:09:50.922Z,1.90
2022-11-05T18:12:20.842Z,2.17
2022-11-05T18:14:50.688Z,2.42
2022-11-05T18:17:21.561Z,2.10
2022-11-05T18:19:51.587Z,1.95
2022-11-05T18:22:21.592Z,2.15
2022-11-05T18:24:52.038Z,3.35
2022-11-05T18:27:21.924Z,2.10
2022-11-05T18:29:51.784Z,2.20
2022-11-05T18:32:22.180Z,2.40
2022-11-05T18:34:52.024Z,2.40
2022-11-05T18:37:21.923Z,2.42
2022-11-05T18:39:55.179Z,2.60
2022-11-05T18:42:26.195Z,2.03
2022-11-05T18:44:56.048Z,2.17
2022-11-05T18:47:27.206Z,2.25
2022-11-05T18:49:57.043Z,2.20
2022-11-05T18:52:28.130Z,1.80
2022-11-05T18:54:57.976Z,2.38
2022-11-05T18:57:28.581Z,1.95
2022-11-05T18:59:58.499Z,2.20
2022-11-05T19:02:28.454Z,2.45
2022-11-05T19:05:27.581Z,2.17
2022-11-05T19:07:48.237Z,3.03
2022-11-05T19:10:18.441Z,1.85
2022-11-05T19:12:48.704Z,2.08
2022-11-05T19:15:18.601Z,2.00
2022-11-05T19:17:48.849Z,2.05
2022-11-05T19:20:19.071Z,2.40
2022-11-05T19:22:48.949Z,2.10
2022-11-05T19:25:18.790Z,1.80
2022-11-05T19:27:49.790Z,2.05
2022-11-05T19:30:19.744Z,1.85
2022-11-05T19:32:49.757Z,1.92
2022-11-05T19:35:20.144Z,1.90
2022-11-05T19:37:51.854Z,2.15
2022-11-05T19:40:22.390Z,2.13
2022-11-05T19:42:53.545Z,2.30
2022-11-05T19:45:43.497Z,1.92
2022-11-05T19:48:18.018Z,3.55
2022-11-05T19:50:49.103Z,2.55
2022-11-05T19:53:18.994Z,2.72
2022-11-05T19:55:49.091Z,3.25
2022-11-05T19:58:19.197Z,3.03
2022-11-05T20:00:49.064Z,2.80
2022-11-05T20:03:19.253Z,2.80
2022-11-05T20:05:49.111Z,2.75
2022-11-05T20:08:18.929Z,3.13
2022-11-05T20:10:48.851Z,2.88
2022-11-05T20:13:19.977Z,3.30
2022-11-05T20:15:50.174Z,3.15
2022-11-05T20:18:21.306Z,3.13
2022-11-05T20:20:51.487Z,2.90
2022-11-05T20:23:21.772Z,2.95
2022-11-05T20:25:51.669Z,3.00
2022-11-05T20:28:21.520Z,3.30
2022-11-05T20:30:51.343Z,3.33
2022-11-05T20:33:22.435Z,3.20
2022-11-05T20:35:52.577Z,3.40
2022-11-05T20:38:22.454Z,3.40
2022-11-05T20:40:53.428Z,3.00
2022-11-05T20:43:29.198Z,3.10
2022-11-05T20:46:01.328Z,3.28
2022-11-05T20:48:34.872Z,3.33
2022-11-05T20:51:09.400Z,3.70
2022-11-05T20:53:39.870Z,3.38
2022-11-05T20:56:13.610Z,3.38
2022-11-05T20:58:44.033Z,3.53
2022-11-05T21:01:15.099Z,3.45
2022-11-05T21:03:45.614Z,3.58
2022-11-05T21:06:16.193Z,3.50
2022-11-05T21:08:47.675Z,2.80
2022-11-05T21:11:17.933Z,3.40
2022-11-05T21:13:48.294Z,2.75
2022-11-05T21:16:19.514Z,3.00
2022-11-05T21:18:50.195Z,2.50
2022-11-05T21:21:21.019Z,2.70
2022-11-05T21:23:51.295Z,3.38
2022-11-05T21:26:21.200Z,2.30
2022-11-05T21:28:51.048Z,3.45
2022-11-05T21:31:20.879Z,2.88
2022-11-05T21:33:54.995Z,2.38
2022-11-05T21:36:25.231Z,2.17
2022-11-05T21:38:56.319Z,2.33
2022-11-05T21:41:26.210Z,2.42
2022-11-05T21:43:56.044Z,2.00
2022-11-05T22:20:54.142Z,2.10
2022-11-05T22:23:24.026Z,2.40
2022-11-05T22:26:00.869Z,2.10
2022-11-05T22:28:30.821Z,2.13
2022-11-05T22:31:01.848Z,1.80
2022-11-05T22:33:32.077Z,1.67
2022-11-05T22:36:01.967Z,2.13
2022-11-05T22:38:33.214Z,2.25
2022-11-05T22:41:03.178Z,1.83
2022-11-05T22:43:34.791Z,1.90
2022-11-05T22:46:08.403Z,1.70
2022-11-05T22:48:38.823Z,1.80
2022-11-05T22:51:09.713Z,2.30
2022-11-05T22:53:39.861Z,1.88
2022-11-05T22:56:10.945Z,2.00
2022-11-05T22:58:41.379Z,1.67
2022-11-05T23:01:15.407Z,1.92
2022-11-05T23:03:46.434Z,2.05
2022-11-05T23:06:34.359Z,1.65
2022-11-05T23:09:22.969Z,2.03
2022-11-05T23:11:54.391Z,1.27
2022-11-05T23:14:24.213Z,4.65
2022-11-05T23:17:12.277Z,5.82
2022-11-05T23:20:00.699Z,2.63
2022-11-05T23:22:50.317Z,3.38
2022-11-05T23:25:21.754Z,1.98
2022-11-05T23:27:53.937Z,2.80
2022-11-05T23:30:25.226Z,3.40
2022-11-05T23:32:55.777Z,1.58
2022-11-05T23:35:44.036Z,1.60
2022-11-05T23:38:31.990Z,1.60
2022-11-05T23:41:23.948Z,1.55
2022-11-05T23:44:12.457Z,1.38
2022-11-05T23:47:00.642Z,1.10
2022-11-05T23:49:30.538Z,1.40
2022-11-05T23:52:00.377Z,1.17
2022-11-05T23:54:31.020Z,0.88
2022-11-05T23:57:00.871Z,0.90
2022-11-05T23:59:30.703Z,1.50
